createdAt,value
2023-01-24T00:00:41.360Z,-11.79
2023-01-24T00:02:43.986Z,-11.77
2023-01-24T00:04:48.052Z,-11.75
2023-01-24T00:06:50.691Z,-11.70
2023-01-24T00:08:54.015Z,-11.67
2023-01-24T00:11:05.220Z,-11.65
2023-01-24T00:13:09.286Z,-11.63
2023-01-24T00:15:12.281Z,-11.62
2023-01-24T00:17:14.928Z,-11.61
2023-01-24T00:19:17.519Z,-11.60
2023-01-24T00:21:25.022Z,-11.63
2023-01-24T00:23:27.606Z,-11.63
2023-01-24T00:25:30.245Z,-11.70
2023-01-24T00:27:32.862Z,-11.66
2023-01-24T00:29:35.456Z,-11.67
2023-01-24T00:31:38.291Z,-11.68
2023-01-24T00:33:41.057Z,-11.74
2023-01-24T00:35:43.674Z,-11.76
2023-01-24T00:37:46.561Z,-11.87
2023-01-24T00:39:49.115Z,-11.97
2023-01-24T00:41:51.975Z,-12.08
2023-01-24T00:43:54.630Z,-12.18
2023-01-24T00:45:57.989Z,-12.26
2023-01-24T00:48:00.591Z,-12.26
2023-01-24T00:50:03.270Z,-12.35
2023-01-24T00:52:06.854Z,-12.36
2023-01-24T00:54:09.640Z,-12.41
2023-01-24T00:56:12.402Z,-12.41
2023-01-24T00:58:15.163Z,-12.47
2023-01-24T01:00:18.079Z,-12.49
2023-01-24T01:02:20.847Z,-12.49
2023-01-24T01:04:23.775Z,-12.51
2023-01-24T01:06:26.387Z,-12.55
2023-01-24T01:08:29.571Z,-12.54
2023-01-24T01:10:32.451Z,-12.57
2023-01-24T01:12:35.147Z,-12.61
2023-01-24T01:14:37.832Z,-12.61
2023-01-24T01:16:40.613Z,-12.63
2023-01-24T01:18:43.597Z,-12.67
2023-01-24T01:20:52.773Z,-12.64
2023-01-24T01:22:55.432Z,-12.64
2023-01-24T01:24:58.066Z,-12.65
2023-01-24T01:27:00.987Z,-12.66
2023-01-24T01:29:03.766Z,-12.63
2023-01-24T01:31:06.593Z,-12.60
2023-01-24T01:33:09.285Z,-12.58
2023-01-24T01:35:12.163Z,-12.56
2023-01-24T01:37:15.348Z,-12.56
2023-01-24T01:39:20.586Z,-12.53
2023-01-24T01:41:23.360Z,-12.48
2023-01-24T01:43:28.719Z,-12.42
2023-01-24T01:45:34.088Z,-12.38
2023-01-24T01:47:37.536Z,-12.36
2023-01-24T01:49:46.608Z,-12.36
2023-01-24T01:51:53.731Z,-12.33
2023-01-24T01:54:26.840Z,-12.34
2023-01-24T01:56:35.538Z,-12.28
2023-01-24T01:58:39.809Z,-12.26
2023-01-24T02:00:51.123Z,-12.27
2023-01-24T02:03:22.802Z,-12.24
2023-01-24T02:05:26.475Z,-12.23
2023-01-24T02:07:42.681Z,-12.21
2023-01-24T02:09:48.609Z,-12.25
2023-01-24T02:11:54.947Z,-12.28
2023-01-24T02:14:18.686Z,-12.30
2023-01-24T02:16:21.399Z,-12.32
2023-01-24T02:18:24.077Z,-12.36
2023-01-24T02:20:39.839Z,-12.39
2023-01-24T02:22:51.005Z,-12.43
2023-01-24T02:25:06.746Z,-12.46
2023-01-24T02:27:09.725Z,-12.48
2023-01-24T02:29:15.798Z,-12.52
2023-01-24T02:31:18.716Z,-12.54
2023-01-24T02:33:21.658Z,-12.56
2023-01-24T02:35:32.678Z,-12.60
2023-01-24T02:37:38.785Z,-12.63
2023-01-24T02:40:07.662Z,-12.67
2023-01-24T02:42:14.740Z,-12.71
2023-01-24T02:44:28.055Z,-12.70
2023-01-24T02:46:31.407Z,-12.71
2023-01-24T02:48:34.085Z,-12.67
2023-01-24T02:50:55.050Z,-12.67
2023-01-24T02:53:16.222Z,-12.66
2023-01-24T02:55:20.830Z,-12.65
2023-01-24T02:57:42.885Z,-12.64
2023-01-24T02:59:45.516Z,-12.61
2023-01-24T03:01:48.071Z,-12.61
2023-01-24T03:03:52.078Z,-12.63
2023-01-24T03:05:57.971Z,-12.64
2023-01-24T03:08:00.746Z,-12.65
2023-01-24T03:10:03.397Z,-12.63
2023-01-24T03:12:27.244Z,-12.63
2023-01-24T03:14:48.253Z,-12.61
2023-01-24T03:17:09.249Z,-12.59
2023-01-24T03:19:30.310Z,-12.60
2023-01-24T03:21:51.598Z,-12.60
2023-01-24T03:24:12.851Z,-12.61
2023-01-24T03:26:34.201Z,-12.62
2023-01-24T03:28:55.696Z,-12.64
2023-01-24T03:31:17.141Z,-12.65
2023-01-24T03:33:38.551Z,-12.65
2023-01-24T03:35:41.112Z,-12.67
2023-01-24T03:38:02.928Z,-12.62
2023-01-24T03:40:09.351Z,-12.62
2023-01-24T03:42:12.016Z,-12.63
2023-01-24T03:44:14.627Z,-12.63
2023-01-24T03:46:17.190Z,-12.64
2023-01-24T03:48:27.643Z,-12.65
2023-01-24T03:50:56.509Z,-12.65
2023-01-24T03:52:59.137Z,-12.70
2023-01-24T03:55:02.264Z,-12.68
2023-01-24T03:57:06.781Z,-12.69
2023-01-24T03:59:09.410Z,-12.71
2023-01-24T04:01:12.043Z,-12.72
2023-01-24T04:03:14.770Z,-12.73
2023-01-24T04:05:17.406Z,-12.71
2023-01-24T04:07:26.952Z,-12.69
2023-01-24T04:09:30.241Z,-12.70
2023-01-24T04:11:32.850Z,-12.64
2023-01-24T04:13:35.492Z,-12.57
2023-01-24T04:15:39.150Z,-12.55
2023-01-24T04:17:41.756Z,-12.49
2023-01-24T04:19:44.598Z,-12.50
2023-01-24T04:21:47.232Z,-12.52
2023-01-24T04:23:49.814Z,-12.59
2023-01-24T04:25:55.973Z,-12.63
2023-01-24T04:27:58.702Z,-12.66
2023-01-24T04:30:01.306Z,-12.67
2023-01-24T04:32:04.907Z,-12.68
2023-01-24T04:34:07.692Z,-12.69
2023-01-24T04:36:11.739Z,-12.71
2023-01-24T04:38:14.325Z,-12.72
2023-01-24T04:40:17.319Z,-12.70
2023-01-24T04:42:19.907Z,-12.68
2023-01-24T04:44:22.568Z,-12.70
2023-01-24T04:46:25.277Z,-12.70
2023-01-24T04:48:27.978Z,-12.72
2023-01-24T04:50:30.621Z,-12.77
2023-01-24T04:52:33.445Z,-12.80
2023-01-24T04:54:36.204Z,-12.81
2023-01-24T04:56:39.269Z,-12.78
2023-01-24T04:58:41.895Z,-12.76
2023-01-24T05:00:44.548Z,-12.72
2023-01-24T05:02:47.150Z,-12.71
2023-01-24T05:04:49.876Z,-12.70
2023-01-24T05:06:52.534Z,-12.70
2023-01-24T05:08:56.385Z,-12.70
2023-01-24T05:11:05.692Z,-12.68
2023-01-24T05:13:08.352Z,-12.67
2023-01-24T05:15:11.157Z,-12.65
2023-01-24T05:17:13.984Z,-12.66
2023-01-24T05:19:17.151Z,-12.72
2023-01-24T05:21:20.094Z,-12.73
2023-01-24T05:23:22.695Z,-12.71
2023-01-24T05:25:25.477Z,-12.71
2023-01-24T05:27:28.417Z,-12.69
2023-01-24T05:29:31.120Z,-12.73
2023-01-24T05:31:33.863Z,-12.74
2023-01-24T05:33:37.666Z,-12.73
2023-01-24T05:35:41.852Z,-12.72
2023-01-24T05:37:44.697Z,-12.76
2023-01-24T05:39:47.280Z,-12.81
2023-01-24T05:41:52.716Z,-12.86
2023-01-24T05:43:55.433Z,-12.91
2023-01-24T05:46:13.364Z,-12.91
2023-01-24T05:48:15.940Z,-12.92
2023-01-24T05:50:18.544Z,-12.92
2023-01-24T05:52:24.151Z,-12.94
2023-01-24T05:54:26.941Z,-12.95
2023-01-24T05:56:29.689Z,-12.98
2023-01-24T05:58:35.789Z,-12.98
2023-01-24T06:00:38.442Z,-12.87
2023-01-24T06:02:41.237Z,-12.83
2023-01-24T06:04:43.923Z,-12.74
2023-01-24T06:06:46.670Z,-12.65
2023-01-24T06:08:49.341Z,-12.63
2023-01-24T06:10:51.995Z,-12.48
2023-01-24T06:12:55.102Z,-12.44
2023-01-24T06:14:57.705Z,-12.41
2023-01-24T06:17:00.753Z,-12.43
2023-01-24T06:19:03.719Z,-12.42
2023-01-24T06:21:10.331Z,-12.48
2023-01-24T06:23:25.183Z,-12.51
2023-01-24T06:25:28.044Z,-12.48
2023-01-24T06:27:30.929Z,-12.49
2023-01-24T06:29:33.974Z,-12.49
2023-01-24T06:32:14.131Z,-12.47
2023-01-24T06:34:46.851Z,-12.54
2023-01-24T06:37:14.147Z,-12.56
2023-01-24T06:39:17.560Z,-12.50
2023-01-24T06:41:20.481Z,-12.41
2023-01-24T06:43:23.654Z,-12.26
2023-01-24T06:45:26.516Z,-12.15
2023-01-24T06:47:29.323Z,-12.04
2023-01-24T06:49:31.909Z,-12.01
2023-01-24T06:51:34.570Z,-12.04
2023-01-24T06:53:37.140Z,-12.14
2023-01-24T06:55:39.694Z,-12.13
2023-01-24T06:57:42.995Z,-11.99
2023-01-24T06:59:45.580Z,-11.90
2023-01-24T07:01:48.251Z,-11.89
2023-01-24T07:03:50.916Z,-11.79
2023-01-24T07:05:53.576Z,-11.69
2023-01-24T07:07:56.676Z,-11.65
2023-01-24T07:09:59.263Z,-11.55
2023-01-24T07:12:01.921Z,-11.45
2023-01-24T07:14:04.620Z,-11.40
2023-01-24T07:16:07.794Z,-11.37
2023-01-24T07:18:13.670Z,-11.24
2023-01-24T07:20:16.914Z,-11.17
2023-01-24T07:22:19.883Z,-11.10
2023-01-24T07:24:25.659Z,-11.04
2023-01-24T07:26:28.495Z,-10.84
2023-01-24T07:28:31.207Z,-10.70
2023-01-24T07:30:33.848Z,-10.57
2023-01-24T07:32:36.555Z,-10.44
2023-01-24T07:34:39.728Z,-10.30
2023-01-24T07:36:43.764Z,-10.19
2023-01-24T07:38:46.345Z,-10.08
2023-01-24T07:40:49.166Z,-9.97
2023-01-24T07:42:51.781Z,-9.90
2023-01-24T07:44:55.080Z,-9.81
2023-01-24T07:46:57.808Z,-9.72
2023-01-24T07:49:02.148Z,-9.65
2023-01-24T07:51:05.031Z,-9.55
2023-01-24T07:53:07.857Z,-9.46
2023-01-24T07:55:10.953Z,-9.43
2023-01-24T07:57:13.665Z,-9.30
2023-01-24T07:59:16.303Z,-9.26
2023-01-24T08:01:20.130Z,-9.18
2023-01-24T08:03:22.982Z,-9.07
2023-01-24T08:05:25.891Z,-9.03
2023-01-24T08:07:28.676Z,-8.95
2023-01-24T08:09:31.576Z,-8.84
2023-01-24T08:11:34.388Z,-8.79
2023-01-24T08:13:36.953Z,-8.77
2023-01-24T08:15:39.491Z,-8.71
2023-01-24T08:17:42.630Z,-8.63
2023-01-24T08:19:55.791Z,-8.57
2023-01-24T08:21:59.430Z,-8.49
2023-01-24T08:24:02.065Z,-8.40
2023-01-24T08:26:07.632Z,-8.34
2023-01-24T08:28:10.392Z,-8.29
2023-01-24T08:30:15.268Z,-8.24
2023-01-24T08:32:18.995Z,-8.18
2023-01-24T08:34:21.944Z,-8.10
2023-01-24T08:36:25.191Z,-8.04
2023-01-24T08:38:27.972Z,-7.96
2023-01-24T08:40:37.941Z,-7.94
2023-01-24T08:42:43.741Z,-7.88
2023-01-24T08:44:46.301Z,-7.81
2023-01-24T08:46:48.861Z,-7.74
2023-01-24T08:48:51.546Z,-7.71
2023-01-24T08:50:54.060Z,-7.68
2023-01-24T08:52:57.979Z,-7.64
2023-01-24T08:55:00.587Z,-7.59
2023-01-24T08:57:07.852Z,-7.55
2023-01-24T08:59:10.593Z,-7.54
2023-01-24T09:01:13.260Z,-7.50
2023-01-24T09:03:19.756Z,-7.46
2023-01-24T09:05:23.340Z,-7.37
2023-01-24T09:07:26.167Z,-7.40
2023-01-24T09:09:28.896Z,-7.34
2023-01-24T09:11:32.118Z,-7.26
2023-01-24T09:13:34.784Z,-7.25
2023-01-24T09:15:37.379Z,-7.25
2023-01-24T09:17:41.076Z,-7.25
2023-01-24T09:19:43.685Z,-7.22
2023-01-24T09:21:48.961Z,-7.13
2023-01-24T09:23:54.099Z,-7.18
2023-01-24T09:25:57.249Z,-7.17
2023-01-24T09:27:59.837Z,-7.09
2023-01-24T09:30:02.468Z,-6.95
2023-01-24T09:32:07.416Z,-6.85
2023-01-24T09:34:10.319Z,-6.85
2023-01-24T09:36:13.455Z,-6.80
2023-01-24T09:38:16.667Z,-6.72
2023-01-24T09:40:26.832Z,-6.81
2023-01-24T09:42:46.917Z,-6.78
2023-01-24T09:45:13.667Z,-6.72
2023-01-24T09:47:34.489Z,-6.68
2023-01-24T09:49:42.626Z,-6.64
2023-01-24T09:51:51.004Z,-6.65
2023-01-24T09:53:57.445Z,-6.63
2023-01-24T09:56:02.319Z,-6.62
2023-01-24T09:58:30.126Z,-6.67
2023-01-24T10:00:37.413Z,-6.74
2023-01-24T10:02:40.666Z,-6.65
2023-01-24T10:04:44.519Z,-6.55
2023-01-24T10:07:24.093Z,-6.54
2023-01-24T10:09:49.610Z,-6.44
2023-01-24T10:12:00.980Z,-6.44
2023-01-24T10:14:26.512Z,-6.48
2023-01-24T10:16:52.901Z,-6.43
2023-01-24T10:19:16.922Z,-6.47
2023-01-24T10:21:40.693Z,-6.44
2023-01-24T10:23:47.610Z,-6.39
2023-01-24T10:26:25.328Z,-6.36
2023-01-24T10:28:39.795Z,-6.33
2023-01-24T10:30:47.772Z,-6.33
2023-01-24T10:32:57.506Z,-6.42
2023-01-24T10:35:14.112Z,-6.39
2023-01-24T10:37:42.830Z,-6.36
2023-01-24T10:39:45.478Z,-6.28
2023-01-24T10:41:48.120Z,-6.28
2023-01-24T10:43:56.624Z,-6.32
2023-01-24T10:46:21.982Z,-6.34
2023-01-24T10:48:43.120Z,-6.30
2023-01-24T10:50:46.124Z,-6.31
2023-01-24T10:52:50.602Z,-6.31
2023-01-24T10:54:58.711Z,-6.31
2023-01-24T10:57:02.902Z,-6.28
2023-01-24T10:59:13.696Z,-6.32
2023-01-24T11:01:21.808Z,-6.38
2023-01-24T11:03:29.770Z,-6.48
2023-01-24T11:05:51.355Z,-6.43
2023-01-24T11:08:00.818Z,-6.46
2023-01-24T11:10:20.448Z,-6.49
2023-01-24T11:12:23.319Z,-6.50
2023-01-24T11:14:50.010Z,-6.48
2023-01-24T11:16:55.900Z,-6.47
2023-01-24T11:19:06.873Z,-6.55
2023-01-24T11:21:14.462Z,-6.56
2023-01-24T11:23:19.488Z,-6.51
2023-01-24T11:25:22.361Z,-6.46
2023-01-24T11:27:25.274Z,-6.44
2023-01-24T11:29:27.902Z,-6.40
2023-01-24T11:31:44.453Z,-6.39
2023-01-24T11:34:02.565Z,-6.45
2023-01-24T11:36:30.703Z,-6.48
2023-01-24T11:38:38.452Z,-6.51
2023-01-24T11:40:48.932Z,-6.57
2023-01-24T11:43:08.756Z,-6.66
2023-01-24T11:45:41.639Z,-6.70
2023-01-24T11:47:56.878Z,-6.73
2023-01-24T11:50:18.497Z,-6.75
2023-01-24T11:52:46.654Z,-6.76
2023-01-24T11:54:56.689Z,-6.85
2023-01-24T11:57:08.531Z,-6.90
2023-01-24T11:59:31.323Z,-6.87
2023-01-24T12:01:55.414Z,-6.85
2023-01-24T12:04:09.061Z,-6.89
2023-01-24T12:06:14.460Z,-6.90
2023-01-24T12:08:22.921Z,-6.92
2023-01-24T12:10:43.853Z,-6.95
2023-01-24T12:13:14.280Z,-7.01
2023-01-24T12:15:59.149Z,-6.97
2023-01-24T12:18:40.221Z,-6.96
2023-01-24T12:21:04.984Z,-6.98
2023-01-24T12:23:34.568Z,-6.88
2023-01-24T12:25:45.633Z,-6.77
2023-01-24T12:27:49.036Z,-6.78
2023-01-24T12:30:17.660Z,-6.88
2023-01-24T12:33:01.913Z,-7.09
2023-01-24T12:35:23.546Z,-7.28
2023-01-24T12:37:38.243Z,-7.41
2023-01-24T12:39:52.465Z,-7.50
2023-01-24T12:42:06.601Z,-7.62
2023-01-24T12:44:21.842Z,-7.73
2023-01-24T12:46:35.332Z,-7.88
2023-01-24T12:48:49.482Z,-7.84
2023-01-24T12:51:05.010Z,-7.87
2023-01-24T12:53:28.547Z,-7.89
2023-01-24T12:55:51.284Z,-7.93
2023-01-24T12:58:05.106Z,-7.98
2023-01-24T13:00:28.065Z,-8.07
2023-01-24T13:02:53.581Z,-8.12
2023-01-24T13:05:08.681Z,-8.13
2023-01-24T13:07:32.860Z,-8.18
2023-01-24T13:09:49.455Z,-8.23
2023-01-24T13:11:55.945Z,-8.24
2023-01-24T13:14:23.499Z,-8.31
2023-01-24T13:16:50.761Z,-8.34
2023-01-24T13:19:24.032Z,-8.35
2023-01-24T13:21:46.674Z,-8.38
2023-01-24T13:24:11.489Z,-8.40
2023-01-24T13:26:17.149Z,-8.44
2023-01-24T13:28:36.920Z,-8.48
2023-01-24T13:30:56.903Z,-8.56
2023-01-24T13:33:04.729Z,-8.60
2023-01-24T13:35:22.054Z,-8.67
2023-01-24T13:37:26.075Z,-8.70
2023-01-24T13:39:40.204Z,-8.70
2023-01-24T13:41:43.626Z,-8.66
2023-01-24T13:43:59.811Z,-8.64
2023-01-24T13:46:02.938Z,-8.62
2023-01-24T13:48:40.712Z,-8.61
2023-01-24T13:50:43.760Z,-8.61
2023-01-24T13:52:57.175Z,-8.63
2023-01-24T13:55:01.726Z,-8.64
2023-01-24T13:57:26.342Z,-8.68
2023-01-24T13:59:29.130Z,-8.68
2023-01-24T14:01:31.992Z,-8.67
2023-01-24T14:03:38.190Z,-8.66
2023-01-24T14:05:48.484Z,-8.69
2023-01-24T14:07:51.185Z,-8.72
2023-01-24T14:10:05.868Z,-8.71
2023-01-24T14:12:18.140Z,-8.74
2023-01-24T14:14:31.063Z,-8.75
2023-01-24T14:16:39.504Z,-8.80
2023-01-24T14:18:42.069Z,-8.80
2023-01-24T14:20:46.426Z,-8.82
2023-01-24T14:22:54.179Z,-8.82
2023-01-24T14:25:06.608Z,-8.85
2023-01-24T14:27:33.904Z,-8.85
2023-01-24T14:29:43.151Z,-8.85
2023-01-24T14:31:55.443Z,-8.85
2023-01-24T14:34:06.994Z,-8.85
2023-01-24T14:36:31.199Z,-8.83
2023-01-24T14:38:34.023Z,-8.85
2023-01-24T14:40:40.322Z,-8.86
2023-01-24T14:42:43.163Z,-8.86
2023-01-24T14:44:57.070Z,-8.85
2023-01-24T14:47:17.545Z,-8.86
2023-01-24T14:49:29.279Z,-8.86
2023-01-24T14:51:31.923Z,-8.85
2023-01-24T14:53:35.459Z,-8.88
2023-01-24T14:55:40.166Z,-8.88
2023-01-24T14:57:43.052Z,-8.87
2023-01-24T14:59:51.064Z,-8.88
2023-01-24T15:01:54.165Z,-8.89
2023-01-24T15:03:57.987Z,-8.90
2023-01-24T15:06:18.594Z,-8.92
2023-01-24T15:08:22.008Z,-8.90
2023-01-24T15:10:33.706Z,-8.93
2023-01-24T15:12:36.974Z,-8.96
2023-01-24T15:14:41.944Z,-8.96
2023-01-24T15:16:55.993Z,-8.97
2023-01-24T15:19:07.444Z,-8.95
2023-01-24T15:21:24.607Z,-8.94
2023-01-24T15:23:30.900Z,-8.93
2023-01-24T15:25:35.531Z,-8.96
2023-01-24T15:27:41.931Z,-8.97
2023-01-24T15:29:51.176Z,-8.96
2023-01-24T15:31:54.557Z,-8.92
2023-01-24T15:33:59.696Z,-8.92
2023-01-24T15:36:02.388Z,-8.97
2023-01-24T15:38:16.981Z,-8.96
2023-01-24T15:40:20.938Z,-8.99
2023-01-24T15:42:42.471Z,-9.03
2023-01-24T15:44:51.846Z,-9.08
2023-01-24T15:47:30.707Z,-9.16
2023-01-24T15:49:38.962Z,-9.18
2023-01-24T15:51:45.191Z,-9.21
2023-01-24T15:53:48.149Z,-9.23
2023-01-24T15:55:52.105Z,-9.21
2023-01-24T15:57:54.701Z,-9.23
2023-01-24T16:00:08.730Z,-9.27
2023-01-24T16:02:15.615Z,-9.29
2023-01-24T16:04:20.886Z,-9.32
2023-01-24T16:06:23.471Z,-9.37
2023-01-24T16:08:27.413Z,-9.39
2023-01-24T16:10:30.032Z,-9.42
2023-01-24T16:12:34.769Z,-9.44
2023-01-24T16:14:37.577Z,-9.44
2023-01-24T16:16:40.189Z,-9.45
2023-01-24T16:18:42.834Z,-9.47
2023-01-24T16:20:45.724Z,-9.48
2023-01-24T16:22:48.855Z,-9.48
2023-01-24T16:24:51.493Z,-9.48
2023-01-24T16:26:56.210Z,-9.51
2023-01-24T16:28:58.806Z,-9.49
2023-01-24T16:31:03.708Z,-9.49
2023-01-24T16:33:06.440Z,-9.52
2023-01-24T16:35:09.509Z,-9.54
2023-01-24T16:37:12.253Z,-9.57
2023-01-24T16:39:19.232Z,-9.53
2023-01-24T16:41:21.984Z,-9.51
2023-01-24T16:43:25.990Z,-9.50
2023-01-24T16:45:29.533Z,-9.49
2023-01-24T16:47:32.410Z,-9.48
2023-01-24T16:49:34.993Z,-9.49
2023-01-24T16:51:37.587Z,-9.50
2023-01-24T16:53:40.261Z,-9.53
2023-01-24T16:55:43.134Z,-9.57
2023-01-24T16:57:46.079Z,-9.58
2023-01-24T16:59:49.400Z,-9.56
2023-01-24T17:01:52.190Z,-9.58
2023-01-24T17:03:54.975Z,-9.56
2023-01-24T17:05:57.646Z,-9.54
2023-01-24T17:08:00.267Z,-9.52
2023-01-24T17:10:06.240Z,-9.47
2023-01-24T17:12:14.443Z,-9.48
2023-01-24T17:14:17.726Z,-9.44
2023-01-24T17:16:20.452Z,-9.42
2023-01-24T17:18:23.124Z,-9.42
2023-01-24T17:20:25.789Z,-9.41
2023-01-24T17:22:29.310Z,-9.41
2023-01-24T17:24:32.036Z,-9.40
2023-01-24T17:26:34.994Z,-9.38
2023-01-24T17:28:38.749Z,-9.39
2023-01-24T17:30:42.901Z,-9.39
2023-01-24T17:32:45.545Z,-9.40
2023-01-24T17:34:48.865Z,-9.40
2023-01-24T17:36:51.764Z,-9.34
2023-01-24T17:38:54.740Z,-9.29
2023-01-24T17:40:57.341Z,-9.26
2023-01-24T17:42:59.902Z,-9.22
2023-01-24T17:45:02.636Z,-9.19
2023-01-24T17:47:06.399Z,-9.13
2023-01-24T17:49:10.078Z,-9.07
2023-01-24T17:51:19.132Z,-9.04
2023-01-24T17:53:21.759Z,-9.02
2023-01-24T17:55:24.475Z,-9.05
2023-01-24T17:57:27.259Z,-9.08
2023-01-24T17:59:30.402Z,-9.16
2023-01-24T18:01:33.028Z,-9.10
2023-01-24T18:03:36.597Z,-9.13
2023-01-24T18:05:42.154Z,-9.15
2023-01-24T18:07:44.779Z,-9.15
2023-01-24T18:09:47.404Z,-9.12
2023-01-24T18:11:50.042Z,-9.10
2023-01-24T18:13:52.658Z,-9.06
2023-01-24T18:16:07.512Z,-9.02
2023-01-24T18:18:10.504Z,-9.01
2023-01-24T18:20:13.243Z,-8.98
2023-01-24T18:22:15.782Z,-8.98
2023-01-24T18:24:18.641Z,-8.97
2023-01-24T18:26:22.133Z,-8.95
2023-01-24T18:28:24.967Z,-8.91
2023-01-24T18:30:27.763Z,-8.88
2023-01-24T18:32:30.332Z,-8.80
2023-01-24T18:34:32.967Z,-8.78
2023-01-24T18:36:35.580Z,-8.79
2023-01-24T18:38:38.465Z,-8.77
2023-01-24T18:40:41.123Z,-8.78
2023-01-24T18:42:43.903Z,-8.80
2023-01-24T18:44:46.535Z,-8.81
2023-01-24T18:46:49.187Z,-8.87
2023-01-24T18:48:51.864Z,-8.88
2023-01-24T18:50:54.464Z,-8.94
2023-01-24T18:52:57.257Z,-8.92
2023-01-24T18:54:59.993Z,-8.91
2023-01-24T18:57:02.621Z,-8.89
2023-01-24T18:59:05.277Z,-8.88
2023-01-24T19:03:20.067Z,-8.93
2023-01-24T19:05:22.640Z,-8.99
2023-01-24T19:07:25.306Z,-9.04
2023-01-24T19:09:27.846Z,-9.07
2023-01-24T19:11:32.159Z,-9.16
2023-01-24T19:13:36.098Z,-9.15
2023-01-24T19:15:38.698Z,-9.15
2023-01-24T19:17:41.267Z,-9.17
2023-01-24T19:19:44.208Z,-9.18
2023-01-24T19:21:49.687Z,-9.13
2023-01-24T19:23:52.601Z,-9.10
2023-01-24T19:25:59.765Z,-9.05
2023-01-24T19:28:02.464Z,-9.05
2023-01-24T19:30:07.225Z,-9.00
2023-01-24T19:32:10.200Z,-9.01
2023-01-24T19:34:12.882Z,-9.01
2023-01-24T19:36:16.575Z,-8.97
2023-01-24T19:38:20.189Z,-8.96
2023-01-24T19:40:22.837Z,-9.00
2023-01-24T19:42:25.891Z,-9.02
2023-01-24T19:44:28.537Z,-8.99
2023-01-24T19:46:31.423Z,-8.99
2023-01-24T19:48:34.144Z,-8.98
2023-01-24T19:50:38.174Z,-8.95
2023-01-24T19:52:40.899Z,-8.93
2023-01-24T19:54:43.462Z,-8.90
2023-01-24T19:56:46.311Z,-8.89
2023-01-24T19:58:48.963Z,-8.83
2023-01-24T20:00:51.586Z,-8.82
2023-01-24T20:02:54.244Z,-8.83
2023-01-24T20:04:56.887Z,-8.82
2023-01-24T20:07:01.029Z,-8.78
2023-01-24T20:09:05.159Z,-8.73
2023-01-24T20:11:08.499Z,-8.71
2023-01-24T20:13:23.286Z,-8.67
2023-01-24T20:15:35.935Z,-8.63
2023-01-24T20:17:38.561Z,-8.72
2023-01-24T20:19:46.649Z,-8.73
2023-01-24T20:21:55.224Z,-8.71
2023-01-24T20:23:59.672Z,-8.66
2023-01-24T20:26:04.012Z,-8.63
2023-01-24T20:28:06.661Z,-8.61
2023-01-24T20:30:09.850Z,-8.61
2023-01-24T20:32:12.864Z,-8.57
2023-01-24T20:34:18.366Z,-8.60
2023-01-24T20:36:21.229Z,-8.57
2023-01-24T20:38:32.486Z,-8.53
2023-01-24T20:40:38.936Z,-8.51
2023-01-24T20:42:43.453Z,-8.51
2023-01-24T20:44:48.096Z,-8.50
2023-01-24T20:46:50.699Z,-8.53
2023-01-24T20:48:56.445Z,-8.56
2023-01-24T20:51:01.144Z,-8.55
2023-01-24T20:53:03.780Z,-8.56
2023-01-24T20:55:07.431Z,-8.54
2023-01-24T20:57:10.141Z,-8.54
2023-01-24T20:59:12.707Z,-8.49
2023-01-24T21:01:16.892Z,-8.51
2023-01-24T21:03:23.768Z,-8.52
2023-01-24T21:05:26.337Z,-8.47
2023-01-24T21:07:28.949Z,-8.47
2023-01-24T21:09:31.562Z,-8.47
2023-01-24T21:11:34.621Z,-8.48
2023-01-24T21:13:41.345Z,-8.43
2023-01-24T21:15:44.222Z,-8.45
2023-01-24T21:17:46.881Z,-8.43
2023-01-24T21:19:49.510Z,-8.48
2023-01-24T21:21:52.464Z,-8.51
2023-01-24T21:23:55.088Z,-8.51
2023-01-24T21:25:58.409Z,-8.47
2023-01-24T21:28:00.926Z,-8.44
2023-01-24T21:30:03.753Z,-8.41
2023-01-24T21:32:07.209Z,-8.39
2023-01-24T21:34:10.853Z,-8.43
2023-01-24T21:36:14.533Z,-8.35
2023-01-24T21:38:17.111Z,-8.29
2023-01-24T21:40:20.137Z,-8.26
2023-01-24T21:42:22.717Z,-8.22
2023-01-24T21:44:29.657Z,-8.23
2023-01-24T21:46:32.323Z,-8.17
2023-01-24T21:49:00.999Z,-8.18
2023-01-24T21:51:03.731Z,-8.15
2023-01-24T21:53:26.300Z,-8.17
2023-01-24T21:55:28.978Z,-8.18
2023-01-24T21:57:50.020Z,-8.23
2023-01-24T21:59:52.638Z,-8.26
2023-01-24T22:01:58.369Z,-8.28
2023-01-24T22:04:01.060Z,-8.31
2023-01-24T22:06:04.834Z,-8.34
2023-01-24T22:08:08.915Z,-8.38
2023-01-24T22:10:13.386Z,-8.41
2023-01-24T22:12:16.116Z,-8.45
2023-01-24T22:14:28.104Z,-8.54
2023-01-24T22:16:30.677Z,-8.57
2023-01-24T22:18:33.068Z,-8.64
2023-01-24T22:20:35.777Z,-8.74
2023-01-24T22:23:07.436Z,-8.85
2023-01-24T22:25:36.831Z,-8.97
2023-01-24T22:27:39.856Z,-9.05
2023-01-24T22:29:43.024Z,-9.16
2023-01-24T22:31:46.081Z,-9.28
2023-01-24T22:33:48.964Z,-9.39
2023-01-24T22:35:56.597Z,-9.45
2023-01-24T22:38:01.218Z,-9.51
2023-01-24T22:40:04.268Z,-9.57
2023-01-24T22:42:06.899Z,-9.60
2023-01-24T22:44:11.118Z,-9.64
2023-01-24T22:46:14.456Z,-9.67
2023-01-24T22:48:17.445Z,-9.75
2023-01-24T22:50:20.878Z,-9.75
2023-01-24T22:52:23.461Z,-9.79
2023-01-24T22:54:26.128Z,-9.76
2023-01-24T22:56:28.759Z,-9.71
2023-01-24T22:58:31.364Z,-9.62
2023-01-24T23:00:34.107Z,-9.54
2023-01-24T23:02:36.835Z,-9.51
2023-01-24T23:04:40.135Z,-9.43
2023-01-24T23:06:42.919Z,-9.31
2023-01-24T23:08:45.689Z,-9.23
2023-01-24T23:10:48.256Z,-9.18
2023-01-24T23:13:09.537Z,-9.16
2023-01-24T23:15:32.390Z,-9.13
2023-01-24T23:17:35.251Z,-9.08
2023-01-24T23:20:02.080Z,-9.04
2023-01-24T23:22:06.809Z,-9.04
2023-01-24T23:24:09.601Z,-9.02
2023-01-24T23:26:12.197Z,-8.99
2023-01-24T23:28:14.755Z,-8.96
2023-01-24T23:30:19.855Z,-8.94
2023-01-24T23:32:40.772Z,-8.91
2023-01-24T23:34:56.677Z,-8.93
2023-01-24T23:36:59.330Z,-8.90
2023-01-24T23:39:01.910Z,-8.90
2023-01-24T23:41:08.830Z,-8.89
2023-01-24T23:43:12.771Z,-8.85
2023-01-24T23:45:19.376Z,-8.84
2023-01-24T23:47:22.640Z,-8.84
2023-01-24T23:49:25.195Z,-8.82
2023-01-24T23:51:27.789Z,-8.85
2023-01-24T23:53:30.638Z,-8.87
2023-01-24T23:55:33.538Z,-8.84
2023-01-24T23:57:36.262Z,-8.79
2023-01-24T23:59:39.024Z,-8.82
